createdAt,value
2023-04-29T00:00:35.261Z,99.99
2023-04-29T00:01:35.280Z,99.99
2023-04-29T00:02:35.344Z,99.99
2023-04-29T00:03:35.432Z,99.99
2023-04-29T00:04:35.402Z,99.99
2023-04-29T00:05:35.346Z,99.99
2023-04-29T00:06:35.201Z,99.99
2023-04-29T00:07:35.180Z,99.99
2023-04-29T00:08:35.224Z,99.99
2023-04-29T00:09:35.171Z,99.99
2023-04-29T00:10:35.163Z,99.99
2023-04-29T00:11:35.166Z,99.99
2023-04-29T00:12:35.144Z,99.99
2023-04-29T00:13:35.125Z,99.99
2023-04-29T00:14:35.120Z,99.99
2023-04-29T00:15:35.096Z,99.99
2023-04-29T00:16:35.115Z,99.99
2023-04-29T00:17:35.214Z,99.99
2023-04-29T00:18:35.079Z,99.99
2023-04-29T00:19:35.052Z,99.99
2023-04-29T00:20:35.053Z,99.99
2023-04-29T00:21:35.021Z,99.99
2023-04-29T00:22:35.024Z,99.99
2023-04-29T00:23:35.024Z,99.99
2023-04-29T00:24:34.991Z,99.99
2023-04-29T00:25:35.006Z,99.99
2023-04-29T00:26:35.001Z,99.99
2023-04-29T00:27:34.979Z,99.99
2023-04-29T00:28:34.992Z,99.99
2023-04-29T00:29:34.972Z,99.99
2023-04-29T00:30:34.940Z,99.99
2023-04-29T00:31:35.013Z,99.99
2023-04-29T00:32:34.970Z,99.99
2023-04-29T00:33:34.888Z,99.99
2023-04-29T00:34:34.916Z,99.99
2023-04-29T00:35:34.928Z,99.99
2023-04-29T00:36:34.876Z,99.99
2023-04-29T00:37:34.870Z,99.99
2023-04-29T00:38:34.838Z,99.99
2023-04-29T00:39:34.860Z,99.99
2023-04-29T00:40:34.854Z,99.99
2023-04-29T00:41:34.811Z,99.99
2023-04-29T00:42:34.803Z,99.99
2023-04-29T00:43:34.888Z,99.99
2023-04-29T00:44:34.784Z,99.99
2023-04-29T00:45:34.761Z,99.99
2023-04-29T00:46:34.828Z,99.99
2023-04-29T00:47:34.791Z,99.99
2023-04-29T00:48:34.752Z,99.99
2023-04-29T00:49:34.723Z,99.99
2023-04-29T00:50:34.716Z,99.99
2023-04-29T00:51:34.752Z,99.99
2023-04-29T00:52:34.723Z,99.99
2023-04-29T00:53:34.690Z,99.99
2023-04-29T00:54:34.669Z,99.99
2023-04-29T00:55:34.670Z,99.99
2023-04-29T00:56:34.644Z,99.99
2023-04-29T00:57:34.694Z,99.99
2023-04-29T00:58:34.658Z,99.99
2023-04-29T00:59:34.646Z,99.99
2023-04-29T01:00:34.612Z,99.99
2023-04-29T01:01:34.652Z,99.99
2023-04-29T01:02:34.636Z,99.99
2023-04-29T01:03:34.681Z,99.99
2023-04-29T01:04:34.865Z,99.99
2023-04-29T01:05:34.560Z,99.99
2023-04-29T01:06:34.545Z,99.99
2023-04-29T01:07:34.557Z,99.99
2023-04-29T01:08:34.527Z,99.99
2023-04-29T01:09:34.545Z,99.99
2023-04-29T01:10:34.512Z,99.99
2023-04-29T01:11:34.485Z,99.99
2023-04-29T01:12:34.496Z,99.99
2023-04-29T01:13:34.474Z,99.99
2023-04-29T01:14:34.486Z,99.99
2023-04-29T01:15:34.456Z,99.99
2023-04-29T01:16:34.583Z,99.99
2023-04-29T01:17:34.422Z,99.99
2023-04-29T01:18:35.181Z,99.99
2023-04-29T01:19:34.396Z,99.99
2023-04-29T01:20:34.394Z,99.99
2023-04-29T01:21:34.378Z,99.99
2023-04-29T01:22:34.383Z,99.99
2023-04-29T01:23:34.361Z,99.99
2023-04-29T01:24:34.338Z,99.99
2023-04-29T01:25:34.356Z,99.99
2023-04-29T01:26:34.315Z,99.99
2023-04-29T01:27:34.300Z,99.99
2023-04-29T01:28:34.294Z,99.99
2023-04-29T01:29:34.300Z,99.99
2023-04-29T01:30:34.278Z,99.99
2023-04-29T01:31:34.327Z,99.99
2023-04-29T01:32:34.677Z,99.99
2023-04-29T01:33:34.238Z,99.99
2023-04-29T01:34:34.241Z,99.99
2023-04-29T01:35:34.221Z,99.99
2023-04-29T01:36:34.223Z,99.99
2023-04-29T01:37:34.219Z,99.99
2023-04-29T01:38:34.249Z,99.99
2023-04-29T01:39:34.188Z,99.99
2023-04-29T01:40:34.164Z,99.99
2023-04-29T01:41:34.153Z,99.99
2023-04-29T01:42:34.139Z,99.99
2023-04-29T01:43:34.125Z,99.99
2023-04-29T01:44:34.154Z,99.99
2023-04-29T01:45:34.121Z,99.99
2023-04-29T01:46:34.148Z,99.99
2023-04-29T01:47:34.197Z,99.99
2023-04-29T01:48:34.073Z,99.99
2023-04-29T01:49:34.091Z,99.99
2023-04-29T01:50:34.050Z,99.99
2023-04-29T01:51:34.048Z,99.99
2023-04-29T01:52:34.039Z,99.99
2023-04-29T01:53:34.039Z,99.99
2023-04-29T01:54:34.009Z,99.99
2023-04-29T01:55:34.033Z,99.99
2023-04-29T01:56:33.995Z,99.99
2023-04-29T01:57:33.970Z,99.99
2023-04-29T01:58:33.973Z,99.99
2023-04-29T01:59:33.985Z,99.99
2023-04-29T02:00:34.001Z,99.99
2023-04-29T02:01:33.939Z,99.99
2023-04-29T02:02:34.080Z,99.99
2023-04-29T02:03:34.136Z,99.99
2023-04-29T02:04:33.997Z,99.99
2023-04-29T02:05:33.912Z,99.99
2023-04-29T02:06:33.981Z,99.99
2023-04-29T02:07:33.864Z,99.99
2023-04-29T02:08:33.862Z,99.99
2023-04-29T02:09:33.872Z,99.99
2023-04-29T02:10:33.850Z,99.99
2023-04-29T02:11:33.828Z,99.99
2023-04-29T02:12:33.834Z,99.99
2023-04-29T02:13:33.813Z,99.99
2023-04-29T02:14:35.048Z,99.99
2023-04-29T02:15:33.832Z,99.99
2023-04-29T02:16:33.830Z,99.99
2023-04-29T02:17:33.798Z,99.99
2023-04-29T02:18:33.752Z,99.99
2023-04-29T02:19:33.765Z,99.99
2023-04-29T02:20:33.725Z,99.99
2023-04-29T02:21:33.743Z,99.99
2023-04-29T02:22:33.717Z,99.99
2023-04-29T02:23:33.718Z,99.99
2023-04-29T02:24:33.717Z,99.99
2023-04-29T02:25:33.704Z,99.99
2023-04-29T02:26:33.703Z,99.99
2023-04-29T02:27:33.691Z,99.99
2023-04-29T02:28:33.660Z,99.99
2023-04-29T02:29:33.668Z,99.99
2023-04-29T02:30:33.643Z,99.99
2023-04-29T02:31:33.676Z,99.99
2023-04-29T02:32:33.699Z,99.99
2023-04-29T02:33:33.624Z,99.99
2023-04-29T02:34:33.596Z,99.99
2023-04-29T02:35:33.563Z,99.99
2023-04-29T02:36:33.579Z,99.99
2023-04-29T02:37:33.554Z,99.99
2023-04-29T02:38:33.596Z,99.99
2023-04-29T02:39:33.550Z,99.99
2023-04-29T02:40:33.519Z,99.99
2023-04-29T02:41:33.619Z,99.99
2023-04-29T02:42:33.499Z,99.99
2023-04-29T02:43:33.482Z,99.99
2023-04-29T02:44:33.502Z,99.99
2023-04-29T09:57:12.141Z,99.99
2023-04-29T09:58:10.996Z,99.99
2023-04-29T09:59:11.025Z,99.99
2023-04-29T10:00:11.081Z,99.99
2023-04-29T10:01:11.082Z,99.99
2023-04-29T10:02:11.053Z,99.99
2023-04-29T10:03:11.030Z,99.99
2023-04-29T10:04:11.000Z,99.99
2023-04-29T10:05:11.018Z,99.99
2023-04-29T10:06:10.981Z,99.99
2023-04-29T10:07:11.013Z,99.99
2023-04-29T10:08:11.593Z,99.99
2023-04-29T10:09:10.930Z,99.99
2023-04-29T10:10:12.037Z,99.99
2023-04-29T10:11:11.994Z,99.99
2023-04-29T10:12:11.338Z,99.99
2023-04-29T10:13:10.931Z,99.99
2023-04-29T10:14:10.872Z,99.99
2023-04-29T10:15:10.864Z,99.99
2023-04-29T10:16:10.916Z,99.99
2023-04-29T10:17:10.885Z,99.99
2023-04-29T10:18:10.880Z,99.99
2023-04-29T10:19:10.811Z,99.99
2023-04-29T10:20:10.818Z,99.99
2023-04-29T10:21:10.859Z,99.99
2023-04-29T10:22:10.773Z,99.45
2023-04-29T10:23:10.769Z,98.94
2023-04-29T10:24:10.807Z,97.50
2023-04-29T10:25:10.748Z,98.43
2023-04-29T10:26:10.781Z,99.55
2023-04-29T10:27:10.730Z,96.69
2023-04-29T10:28:10.732Z,97.40
2023-04-29T10:29:10.710Z,98.18
2023-04-29T10:30:10.696Z,99.30
2023-04-29T10:31:10.725Z,98.69
2023-04-29T10:32:10.688Z,98.38
2023-04-29T10:33:10.701Z,99.10
2023-04-29T10:34:10.660Z,97.72
2023-04-29T10:35:10.614Z,98.13
2023-04-29T10:36:10.633Z,98.95
2023-04-29T10:37:10.614Z,98.54
2023-04-29T10:38:10.589Z,97.98
2023-04-29T10:39:10.618Z,98.70
2023-04-29T10:40:10.624Z,98.39
2023-04-29T10:41:10.558Z,97.57
2023-04-29T10:42:10.544Z,98.04
2023-04-29T10:43:10.592Z,95.59
2023-04-29T10:44:10.580Z,94.26
2023-04-29T10:45:10.540Z,97.22
2023-04-29T10:46:10.524Z,95.69
2023-04-29T10:47:10.502Z,94.06
2023-04-29T10:48:10.552Z,95.28
2023-04-29T10:49:10.522Z,94.26
2023-04-29T10:50:10.522Z,94.15
2023-04-29T10:51:10.484Z,94.97
2023-04-29T10:52:10.490Z,94.67
2023-04-29T10:53:10.449Z,94.77
2023-04-29T10:54:10.436Z,95.28
2023-04-29T10:55:10.462Z,95.69
2023-04-29T10:56:10.449Z,94.87
2023-04-29T10:57:10.434Z,96.30
2023-04-29T10:58:10.396Z,96.66
2023-04-29T10:59:10.431Z,96.45
2023-04-29T11:00:10.404Z,96.96
2023-04-29T11:01:10.441Z,97.37
2023-04-29T11:02:10.374Z,96.34
2023-04-29T11:03:10.571Z,95.84
2023-04-29T11:04:10.369Z,94.71
2023-04-29T11:05:10.387Z,94.40
2023-04-29T11:06:10.320Z,94.30
2023-04-29T11:07:10.332Z,94.30
2023-04-29T11:08:10.273Z,92.97
2023-04-29T11:09:10.320Z,94.40
2023-04-29T11:10:10.271Z,95.94
2023-04-29T11:11:10.249Z,95.12
2023-04-29T11:12:10.269Z,94.51
2023-04-29T11:13:10.308Z,93.99
2023-04-29T11:14:10.245Z,93.79
2023-04-29T11:15:10.238Z,94.51
2023-04-29T11:16:10.312Z,94.60
2023-04-29T11:17:10.191Z,96.25
2023-04-29T11:18:10.230Z,95.02
2023-04-29T11:19:10.210Z,94.30
2023-04-29T11:20:10.236Z,95.84
2023-04-29T11:21:10.166Z,96.14
2023-04-29T11:22:10.232Z,94.10
2023-04-29T11:23:10.151Z,96.45
2023-04-29T11:24:10.141Z,94.46
2023-04-29T11:25:10.130Z,93.24
2023-04-29T11:26:10.123Z,93.74
2023-04-29T11:27:10.117Z,92.11
2023-04-29T11:28:10.130Z,91.19
2023-04-29T11:29:10.097Z,93.24
2023-04-29T11:30:10.098Z,94.15
2023-04-29T11:31:10.126Z,93.13
2023-04-29T11:32:10.180Z,94.15
2023-04-29T11:33:10.181Z,94.77
2023-04-29T11:34:10.057Z,93.59
2023-04-29T11:35:10.028Z,95.02
2023-04-29T11:36:10.029Z,95.48
2023-04-29T11:37:10.007Z,94.77
2023-04-29T11:38:09.975Z,94.97
2023-04-29T11:39:09.992Z,95.89
2023-04-29T11:40:10.019Z,94.67
2023-04-29T11:41:09.947Z,94.77
2023-04-29T11:42:10.153Z,94.97
2023-04-29T11:43:09.984Z,90.78
2023-04-29T11:44:09.909Z,93.03
2023-04-29T11:45:09.914Z,94.56
2023-04-29T11:46:10.017Z,93.33
2023-04-29T11:47:09.913Z,93.85
2023-04-29T11:48:09.966Z,93.74
2023-04-29T11:49:09.868Z,93.74
2023-04-29T11:50:09.841Z,93.13
2023-04-29T11:51:09.863Z,91.70
2023-04-29T11:52:09.852Z,91.29
2023-04-29T11:53:09.827Z,94.06
2023-04-29T11:54:09.877Z,94.21
2023-04-29T11:55:09.796Z,93.91
2023-04-29T11:56:09.800Z,89.82
2023-04-29T11:57:09.796Z,91.35
2023-04-29T11:58:09.793Z,90.53
2023-04-29T11:59:09.767Z,89.61
2023-04-29T12:00:09.791Z,91.05
2023-04-29T12:01:09.800Z,91.96
2023-04-29T12:02:09.765Z,90.74
2023-04-29T12:03:09.878Z,90.94
2023-04-29T12:04:10.049Z,91.25
2023-04-29T12:05:09.967Z,90.02
2023-04-29T12:06:09.735Z,89.88
2023-04-29T12:07:09.699Z,89.58
2023-04-29T12:08:09.651Z,89.06
2023-04-29T12:09:09.691Z,89.51
2023-04-29T12:10:09.675Z,88.70
2023-04-29T12:11:09.637Z,91.46
2023-04-29T12:12:09.644Z,89.37
2023-04-29T12:13:10.406Z,87.88
2023-04-29T12:14:09.620Z,91.05
2023-04-29T12:15:09.584Z,90.74
2023-04-29T12:16:09.610Z,91.25
2023-04-29T12:17:09.609Z,91.96
2023-04-29T12:18:09.601Z,92.07
2023-04-29T12:19:09.561Z,91.15
2023-04-29T12:20:09.536Z,89.51
2023-04-29T12:21:09.552Z,90.84
2023-04-29T12:22:09.528Z,92.07
2023-04-29T12:23:09.537Z,90.74
2023-04-29T12:24:09.511Z,90.02
2023-04-29T12:25:09.456Z,90.33
2023-04-29T12:26:09.469Z,91.76
2023-04-29T12:27:09.476Z,89.92
2023-04-29T12:28:09.477Z,91.96
2023-04-29T12:29:09.478Z,92.58
2023-04-29T12:30:09.861Z,93.85
2023-04-29T12:31:09.470Z,92.72
2023-04-29T12:32:09.448Z,91.80
2023-04-29T12:33:09.525Z,91.91
2023-04-29T12:34:10.189Z,92.21
2023-04-29T12:35:10.462Z,91.70
2023-04-29T12:36:09.646Z,89.86
2023-04-29T12:37:09.321Z,90.06
2023-04-29T12:38:09.340Z,88.33
2023-04-29T12:39:09.337Z,90.37
2023-04-29T12:40:09.386Z,89.86
2023-04-29T12:41:09.305Z,90.17
2023-04-29T12:42:09.281Z,89.70
2023-04-29T12:43:09.303Z,89.97
2023-04-29T12:44:09.292Z,89.86
2023-04-29T12:45:09.341Z,88.53
2023-04-29T12:46:09.311Z,88.88
2023-04-29T12:47:09.295Z,89.39
2023-04-29T12:48:15.149Z,91.91
2023-04-29T12:49:09.236Z,92.62
2023-04-29T12:50:09.351Z,92.93
2023-04-29T12:51:09.243Z,93.65
2023-04-29T12:52:09.181Z,90.27
2023-04-29T12:53:09.217Z,90.68
2023-04-29T12:54:09.205Z,89.35
2023-04-29T12:55:09.196Z,88.94
2023-04-29T12:56:09.234Z,88.84
2023-04-29T12:57:10.199Z,88.64
2023-04-29T12:58:09.132Z,90.37
2023-04-29T12:59:09.148Z,91.91
2023-04-29T13:00:09.207Z,92.01
2023-04-29T13:01:10.593Z,90.78
2023-04-29T13:02:09.262Z,90.99
2023-04-29T13:03:09.197Z,90.99
2023-04-29T13:04:09.426Z,91.15
2023-04-29T13:05:09.259Z,90.43
2023-04-29T13:07:19.508Z,89.72
2023-04-29T13:08:20.475Z,86.96
2023-04-29T13:09:20.459Z,87.98
2023-04-29T13:10:20.556Z,87.26
2023-04-29T13:11:20.448Z,86.55
2023-04-29T13:12:20.466Z,86.04
2023-04-29T13:13:20.417Z,89.61
2023-04-29T13:14:20.428Z,89.11
2023-04-29T13:15:20.403Z,90.23
2023-04-29T13:16:20.424Z,89.45
2023-04-29T13:17:20.375Z,89.04
2023-04-29T13:18:20.390Z,88.53
2023-04-29T13:19:34.811Z,88.64
2023-04-29T13:20:20.344Z,89.04
2023-04-29T13:21:20.336Z,90.88
2023-04-29T13:22:20.337Z,90.58
2023-04-29T13:23:20.331Z,88.53
2023-04-29T13:24:20.340Z,87.82
2023-04-29T13:25:20.299Z,87.82
2023-04-29T13:26:20.320Z,85.67
2023-04-29T13:27:20.283Z,87.41
2023-04-29T13:28:20.279Z,87.00
2023-04-29T13:29:20.268Z,88.12
2023-04-29T13:30:20.241Z,86.43
2023-04-29T13:31:20.270Z,87.76
2023-04-29T13:32:20.869Z,87.35
2023-04-29T13:33:20.243Z,89.59
2023-04-29T13:34:20.208Z,90.00
2023-04-29T13:35:20.230Z,91.33
2023-04-29T13:36:20.185Z,93.18
2023-04-29T13:37:20.170Z,91.85
2023-04-29T13:38:20.157Z,91.74
2023-04-29T13:39:20.526Z,90.92
2023-04-29T13:40:21.403Z,91.03
2023-04-29T13:41:20.757Z,87.85
2023-04-29T13:42:20.163Z,89.59
2023-04-29T13:43:30.136Z,90.21
2023-04-29T13:44:29.404Z,90.52
2023-04-29T13:45:20.098Z,90.11
2023-04-29T13:46:20.811Z,89.45
2023-04-29T13:47:25.512Z,88.64
2023-04-29T13:48:50.115Z,88.43
2023-04-29T13:49:42.382Z,87.71
2023-04-29T13:50:57.531Z,87.82
2023-04-29T13:52:53.909Z,86.38
2023-04-29T13:53:42.002Z,87.20
2023-04-29T14:00:45.259Z,87.61
2023-04-29T14:01:55.213Z,87.82
2023-04-29T14:02:26.663Z,87.41
2023-04-29T14:03:19.990Z,86.59
2023-04-29T14:04:19.984Z,88.12
2023-04-29T14:05:19.993Z,89.76
2023-04-29T14:06:19.868Z,89.97
2023-04-29T14:07:19.862Z,86.85
2023-04-29T14:08:19.883Z,86.35
2023-04-29T14:09:19.841Z,86.24
2023-04-29T14:10:19.827Z,88.08
2023-04-29T14:11:19.840Z,86.76
2023-04-29T14:12:19.802Z,86.49
2023-04-29T14:13:19.796Z,85.26
2023-04-29T14:14:19.788Z,85.57
2023-04-29T14:15:19.925Z,85.26
2023-04-29T14:16:19.796Z,86.29
2023-04-29T14:17:19.775Z,85.47
2023-04-29T14:18:19.763Z,84.95
2023-04-29T14:19:19.815Z,85.06
2023-04-29T14:20:19.725Z,85.88
2023-04-29T14:21:19.714Z,88.33
2023-04-29T14:22:19.696Z,88.43
2023-04-29T14:23:19.691Z,88.23
2023-04-29T14:24:19.695Z,89.65
2023-04-29T14:25:19.664Z,89.25
2023-04-29T14:27:19.662Z,86.18
2023-04-29T14:28:19.645Z,86.08
2023-04-29T14:29:19.639Z,85.36
2023-04-29T14:30:19.614Z,88.53
2023-04-29T14:31:19.673Z,88.94
2023-04-29T14:32:19.617Z,88.94
2023-04-29T14:33:19.588Z,89.76
2023-04-29T14:34:19.580Z,88.59
2023-04-29T14:35:19.605Z,86.59
2023-04-29T14:36:19.575Z,87.67
2023-04-29T14:37:19.543Z,89.00
2023-04-29T14:38:19.528Z,88.29
2023-04-29T14:39:19.521Z,87.37
2023-04-29T14:40:19.530Z,86.24
2023-04-29T14:41:19.502Z,85.83
2023-04-29T14:42:19.493Z,86.55
2023-04-29T14:43:19.480Z,86.24
2023-04-29T14:44:19.472Z,86.96
2023-04-29T14:45:19.467Z,88.18
2023-04-29T14:46:20.338Z,88.18
2023-04-29T14:47:19.622Z,86.65
2023-04-29T14:48:19.667Z,86.35
2023-04-29T14:49:19.672Z,85.02
2023-04-29T14:51:45.433Z,87.47
2023-04-29T14:53:10.674Z,89.92
2023-04-29T14:54:21.745Z,90.23
2023-04-29T14:55:21.241Z,89.20
2023-04-29T14:57:30.075Z,86.85
2023-04-29T14:58:30.896Z,87.26
2023-04-29T14:59:30.886Z,86.96
2023-04-29T15:00:30.901Z,86.55
2023-04-29T15:01:32.263Z,85.63
2023-04-29T15:02:30.823Z,85.94
2023-04-29T15:03:30.836Z,85.32
2023-04-29T15:04:30.805Z,87.98
2023-04-29T15:05:30.810Z,87.98
2023-04-29T15:06:30.955Z,88.90
2023-04-29T15:07:31.798Z,88.59
2023-04-29T15:08:30.748Z,86.14
2023-04-29T15:09:30.716Z,85.42
2023-04-29T15:10:30.762Z,87.12
2023-04-29T15:11:30.726Z,84.09
2023-04-29T15:12:30.699Z,86.00
2023-04-29T15:13:32.003Z,86.61
2023-04-29T15:14:30.711Z,87.23
2023-04-29T15:15:30.677Z,84.67
2023-04-29T15:16:30.747Z,83.85
2023-04-29T15:17:30.712Z,85.18
2023-04-29T15:18:30.630Z,85.49
2023-04-29T15:19:30.682Z,84.98
2023-04-29T15:20:30.610Z,83.75
2023-04-29T15:21:30.708Z,83.04
2023-04-29T15:22:30.589Z,83.44
2023-04-29T15:23:30.647Z,82.22
2023-04-29T15:24:30.562Z,83.54
2023-04-29T15:25:30.589Z,83.24
2023-04-29T15:26:30.569Z,86.51
2023-04-29T15:27:30.549Z,86.61
2023-04-29T15:28:30.576Z,88.14
2023-04-29T15:29:30.521Z,86.91
2023-04-29T15:30:30.527Z,86.51
2023-04-29T15:31:30.892Z,88.14
2023-04-29T15:32:30.524Z,87.84
2023-04-29T15:33:30.460Z,87.94
2023-04-29T15:34:30.451Z,87.57
2023-04-29T15:35:30.459Z,85.73
2023-04-29T15:36:30.744Z,85.12
2023-04-29T15:37:30.463Z,84.20
2023-04-29T15:38:30.451Z,85.94
2023-04-29T15:39:30.999Z,88.29
2023-04-29T15:40:30.405Z,87.26
2023-04-29T15:41:30.421Z,86.96
2023-04-29T15:42:30.395Z,85.83
2023-04-29T15:43:30.362Z,85.02
2023-04-29T15:44:30.409Z,86.85
2023-04-29T15:45:30.412Z,88.59
2023-04-29T15:46:30.345Z,89.41
2023-04-29T15:47:30.392Z,89.51
2023-04-29T15:48:30.352Z,88.59
2023-04-29T15:49:30.338Z,88.90
2023-04-29T15:50:30.293Z,88.08
2023-04-29T15:51:30.366Z,88.08
2023-04-29T15:52:30.288Z,87.16
2023-04-29T15:53:30.281Z,87.26
2023-04-29T15:54:30.272Z,87.06
2023-04-29T15:55:30.249Z,86.44
2023-04-29T15:56:30.230Z,88.79
2023-04-29T15:57:30.212Z,86.35
2023-04-29T15:58:30.232Z,87.88
2023-04-29T15:59:30.229Z,86.65
2023-04-29T16:00:30.183Z,86.85
2023-04-29T16:01:30.220Z,86.55
2023-04-29T16:02:30.275Z,88.29
2023-04-29T16:03:30.218Z,87.47
2023-04-29T16:04:30.177Z,87.77
2023-04-29T16:05:31.215Z,86.96
2023-04-29T16:06:30.176Z,85.02
2023-04-29T16:07:30.143Z,85.83
2023-04-29T16:08:30.156Z,86.44
2023-04-29T16:09:30.199Z,87.98
2023-04-29T16:10:30.101Z,87.06
2023-04-29T16:11:30.080Z,85.73
2023-04-29T16:12:30.040Z,84.81
2023-04-29T16:13:30.068Z,84.91
2023-04-29T16:14:30.056Z,86.76
2023-04-29T16:15:30.065Z,88.08
2023-04-29T16:16:30.042Z,86.44
2023-04-29T16:17:30.045Z,87.16
2023-04-29T16:18:29.995Z,88.08
2023-04-29T16:19:30.047Z,87.47
2023-04-29T16:20:29.987Z,88.70
2023-04-29T16:21:30.085Z,88.70
2023-04-29T16:22:29.962Z,88.29
2023-04-29T16:23:29.944Z,89.31
2023-04-29T16:24:30.057Z,89.31
2023-04-29T16:25:29.920Z,89.82
2023-04-29T16:26:29.902Z,90.12
2023-04-29T16:27:29.943Z,89.31
2023-04-29T16:28:29.972Z,87.57
2023-04-29T16:29:29.888Z,87.26
2023-04-29T16:30:29.918Z,86.44
2023-04-29T16:31:30.935Z,88.08
2023-04-29T16:32:29.903Z,89.41
2023-04-29T16:33:29.861Z,88.90
2023-04-29T16:34:30.126Z,89.11
2023-04-29T16:35:29.839Z,89.31
2023-04-29T16:36:29.831Z,90.12
2023-04-29T16:37:29.976Z,90.74
2023-04-29T16:38:29.880Z,91.05
2023-04-29T16:39:29.804Z,89.25
2023-04-29T16:40:29.843Z,88.43
2023-04-29T16:41:29.915Z,89.04
2023-04-29T16:42:29.762Z,90.47
2023-04-29T16:43:29.751Z,89.76
2023-04-29T16:44:29.756Z,89.04
2023-04-29T16:45:29.738Z,89.25
2023-04-29T16:46:29.834Z,90.27
2023-04-29T16:47:29.788Z,90.17
2023-04-29T16:48:29.696Z,88.23
2023-04-29T16:49:29.678Z,88.53
2023-04-29T16:50:29.805Z,89.04
2023-04-29T16:51:30.044Z,88.64
2023-04-29T16:52:42.218Z,87.92
2023-04-29T19:07:04.315Z,94.80
2023-04-29T19:08:03.875Z,95.25
2023-04-29T19:09:03.865Z,94.95
2023-04-29T19:10:03.842Z,94.74
2023-04-29T19:11:03.843Z,95.97
2023-04-29T19:12:03.972Z,95.67
2023-04-29T19:13:03.858Z,95.15
2023-04-29T19:14:03.826Z,95.56
2023-04-29T19:15:04.010Z,96.08
2023-04-29T19:16:03.844Z,95.92
2023-04-29T19:17:03.756Z,95.30
2023-04-29T19:18:03.801Z,96.22
2023-04-29T19:19:03.753Z,96.22
2023-04-29T19:20:03.818Z,96.53
2023-04-29T19:21:03.737Z,96.33
2023-04-29T19:22:03.716Z,95.50
2023-04-29T19:23:03.731Z,95.61
2023-04-29T19:24:03.823Z,95.81
2023-04-29T19:25:03.716Z,95.81
2023-04-29T19:26:03.711Z,95.55
2023-04-29T19:27:03.783Z,96.27
2023-04-29T19:28:03.686Z,96.47
2023-04-29T19:29:03.690Z,96.89
2023-04-29T19:30:03.629Z,96.89
2023-04-29T19:31:03.709Z,96.78
2023-04-29T19:32:03.668Z,97.19
2023-04-29T19:33:03.630Z,97.34
2023-04-29T19:34:03.624Z,96.93
2023-04-29T19:35:03.632Z,96.93
2023-04-29T19:36:03.689Z,96.72
2023-04-29T19:37:03.565Z,97.14
2023-04-29T19:38:03.556Z,97.24
2023-04-29T19:39:03.585Z,97.55
2023-04-29T19:40:04.134Z,97.44
2023-04-29T19:41:03.626Z,97.55
2023-04-29T19:42:03.561Z,97.18
2023-04-29T19:43:03.526Z,97.18
2023-04-29T19:44:04.148Z,97.60
2023-04-29T19:45:03.788Z,97.60
2023-04-29T19:46:03.559Z,96.88
2023-04-29T19:47:03.580Z,97.18
2023-04-29T19:48:03.479Z,97.49
2023-04-29T19:49:03.472Z,97.28
2023-04-29T19:50:03.484Z,97.08
2023-04-29T19:51:03.436Z,97.08
2023-04-29T19:52:03.444Z,97.08
2023-04-29T19:53:03.417Z,96.97
2023-04-29T19:54:03.409Z,97.28
2023-04-29T19:55:03.403Z,97.33
2023-04-29T19:56:03.438Z,96.81
2023-04-29T19:57:03.475Z,97.02
2023-04-29T19:58:03.373Z,97.64
2023-04-29T19:59:03.353Z,97.85
2023-04-29T20:00:03.361Z,97.95
2023-04-29T20:01:03.401Z,97.43
2023-04-29T20:02:03.579Z,97.33
2023-04-29T20:03:03.358Z,97.23
2023-04-29T20:04:03.297Z,97.06
2023-04-29T20:05:03.322Z,97.27
2023-04-29T20:06:03.332Z,97.68
2023-04-29T20:07:03.342Z,97.17
2023-04-29T20:08:03.280Z,96.96
2023-04-29T20:09:03.310Z,97.38
2023-04-29T20:10:03.245Z,97.38
2023-04-29T20:11:03.226Z,97.58
2023-04-29T20:12:03.234Z,97.73
2023-04-29T20:13:03.243Z,97.63
2023-04-29T20:14:03.217Z,97.83
2023-04-29T20:15:03.192Z,97.52
2023-04-29T20:16:03.274Z,97.94
2023-04-29T20:17:03.314Z,97.52
2023-04-29T20:18:03.321Z,98.24
2023-04-29T20:19:03.143Z,98.35
2023-04-29T20:20:03.175Z,98.14
2023-04-29T20:21:03.166Z,97.98
2023-04-29T20:22:03.111Z,98.39
2023-04-29T20:23:03.098Z,98.70
2023-04-29T20:24:03.165Z,97.98
2023-04-29T20:25:03.123Z,98.19
2023-04-29T20:26:03.166Z,98.60
2023-04-29T20:27:03.167Z,98.60
2023-04-29T20:28:03.081Z,97.88
2023-04-29T20:29:03.066Z,98.08
2023-04-29T20:30:03.322Z,98.19
2023-04-29T20:31:03.022Z,98.44
2023-04-29T20:32:03.106Z,98.44
2023-04-29T20:33:03.085Z,98.54
2023-04-29T20:34:02.975Z,98.65
2023-04-29T20:35:03.003Z,99.47
2023-04-29T20:36:02.973Z,99.26
2023-04-29T20:37:02.971Z,99.06
2023-04-29T20:38:02.953Z,99.16
2023-04-29T20:39:02.926Z,99.16
2023-04-29T20:40:02.933Z,99.37
2023-04-29T20:41:02.956Z,99.57
2023-04-29T20:42:02.956Z,99.37
2023-04-29T20:43:02.928Z,99.37
2023-04-29T20:44:02.897Z,99.21
2023-04-29T20:45:02.966Z,99.10
2023-04-29T20:46:03.077Z,98.90
2023-04-29T20:47:02.862Z,99.31
2023-04-29T20:48:02.932Z,99.21
2023-04-29T20:49:02.935Z,98.79
2023-04-29T20:50:02.828Z,98.90
2023-04-29T20:51:02.884Z,98.69
2023-04-29T20:52:02.842Z,98.58
2023-04-29T20:53:02.817Z,98.90
2023-04-29T20:54:02.829Z,99.35
2023-04-29T20:55:02.799Z,99.35
2023-04-29T20:56:02.893Z,99.25
2023-04-29T20:57:02.780Z,98.94
2023-04-29T20:58:02.738Z,98.63
2023-04-29T20:59:02.740Z,99.25
2023-04-29T21:00:02.766Z,99.56
2023-04-29T21:01:02.763Z,99.25
2023-04-29T21:02:02.708Z,99.25
2023-04-29T21:03:02.755Z,99.77
2023-04-29T21:04:02.722Z,99.15
2023-04-29T21:05:02.862Z,98.74
2023-04-29T21:06:02.874Z,98.84
2023-04-29T21:07:02.978Z,98.63
2023-04-29T21:08:02.794Z,99.09
2023-04-29T21:09:02.861Z,99.15
2023-04-29T21:10:02.723Z,99.40
2023-04-29T21:11:02.781Z,99.25
2023-04-29T21:12:02.676Z,99.56
2023-04-29T21:13:02.644Z,99.46
2023-04-29T21:14:02.608Z,99.25
2023-04-29T21:15:02.612Z,99.56
2023-04-29T21:16:02.610Z,99.46
2023-04-29T21:17:02.563Z,99.66
2023-04-29T21:18:02.653Z,99.87
2023-04-29T21:19:02.549Z,99.99
2023-04-29T21:20:02.549Z,99.77
2023-04-29T21:21:02.572Z,99.77
2023-04-29T21:22:02.525Z,99.25
2023-04-29T21:23:02.499Z,99.66
2023-04-29T21:24:02.511Z,99.98
2023-04-29T21:25:02.492Z,99.82
2023-04-29T21:26:02.477Z,99.99
2023-04-29T21:27:02.487Z,99.99
2023-04-29T21:28:02.469Z,99.72
2023-04-29T21:29:02.484Z,99.62
2023-04-29T21:30:02.424Z,99.82
2023-04-29T21:31:02.483Z,99.72
2023-04-29T21:32:02.443Z,99.21
2023-04-29T21:33:02.466Z,98.58
2023-04-29T21:34:02.420Z,99.00
2023-04-29T21:35:02.469Z,99.10
2023-04-29T21:36:02.373Z,99.21
2023-04-29T21:37:02.363Z,99.82
2023-04-29T21:38:02.388Z,99.99
2023-04-29T21:39:02.370Z,99.72
2023-04-29T21:40:02.333Z,99.72
2023-04-29T21:41:02.370Z,99.41
2023-04-29T21:42:02.333Z,99.72
2023-04-29T21:43:02.372Z,99.72
2023-04-29T21:44:02.284Z,99.99
2023-04-29T21:45:02.272Z,99.99
2023-04-29T21:46:02.299Z,99.99
2023-04-29T21:47:02.452Z,99.99
2023-04-29T21:48:02.271Z,99.99
2023-04-29T21:49:02.276Z,99.99
2023-04-29T21:50:02.253Z,99.99
2023-04-29T21:51:02.213Z,99.99
2023-04-29T21:52:02.224Z,99.99
2023-04-29T21:53:02.219Z,99.99
2023-04-29T21:54:02.222Z,99.99
2023-04-29T21:55:02.245Z,99.99
2023-04-29T21:56:02.183Z,99.99
2023-04-29T21:57:02.148Z,99.99
2023-04-29T21:58:02.156Z,99.99
2023-04-29T21:59:02.160Z,99.99
2023-04-29T22:00:02.158Z,99.99
2023-04-29T22:01:02.137Z,99.99
2023-04-29T22:02:02.116Z,99.99
2023-04-29T22:03:02.173Z,99.99
2023-04-29T22:04:02.190Z,99.99
2023-04-29T22:05:02.103Z,99.99
2023-04-29T22:06:02.155Z,99.99
2023-04-29T22:07:02.079Z,99.99
2023-04-29T22:08:02.081Z,99.63
2023-04-29T22:09:02.066Z,99.99
2023-04-29T22:10:02.019Z,99.99
2023-04-29T22:11:02.044Z,99.99
2023-04-29T22:12:01.996Z,99.99
2023-04-29T22:13:02.006Z,99.38
2023-04-29T22:14:01.998Z,99.99
2023-04-29T22:15:01.984Z,99.90
2023-04-29T22:16:01.998Z,99.99
2023-04-29T22:17:02.032Z,99.99
2023-04-29T22:18:01.968Z,99.99
2023-04-29T22:19:01.988Z,99.69
2023-04-29T22:20:01.918Z,99.48
2023-04-29T22:21:01.908Z,99.02
2023-04-29T22:22:01.913Z,99.85
2023-04-29T22:23:01.896Z,99.74
2023-04-29T22:24:01.898Z,99.54
2023-04-29T22:25:01.880Z,99.54
2023-04-29T22:26:01.865Z,99.64
2023-04-29T22:27:01.839Z,98.71
2023-04-29T22:28:01.865Z,98.92
2023-04-29T22:29:01.860Z,98.92
2023-04-29T22:30:01.817Z,98.50